createdAt,value
2022-08-24T00:01:53.849Z,19.65
2022-08-24T00:04:20.859Z,19.63
2022-08-24T00:06:47.790Z,19.62
2022-08-24T00:09:14.684Z,19.61
2022-08-24T00:11:42.313Z,19.59
2022-08-24T00:14:11.685Z,19.59
2022-08-24T00:16:38.729Z,19.58
2022-08-24T00:19:05.991Z,19.57
2022-08-24T00:21:33.884Z,19.56
2022-08-24T00:24:03.126Z,19.54
2022-08-24T00:26:30.458Z,19.54
2022-08-24T00:28:58.493Z,19.53
2022-08-24T00:31:26.187Z,19.52
2022-08-24T00:33:53.480Z,19.52
2022-08-24T00:36:22.237Z,19.54
2022-08-24T00:38:50.004Z,19.56
2022-08-24T00:41:17.928Z,19.56
2022-08-24T00:43:59.866Z,19.55
2022-08-24T00:46:33.755Z,19.55
2022-08-24T00:49:10.055Z,19.52
2022-08-24T00:51:42.064Z,19.50
2022-08-24T00:54:14.035Z,19.47
2022-08-24T00:56:49.208Z,19.47
2022-08-24T00:59:22.111Z,19.46
2022-08-24T01:01:51.518Z,19.46
2022-08-24T01:04:29.312Z,19.44
2022-08-24T01:06:59.576Z,19.43
2022-08-24T01:09:26.461Z,19.42
2022-08-24T01:11:53.999Z,19.40
2022-08-24T01:14:23.297Z,19.40
2022-08-24T01:17:09.244Z,19.41
2022-08-24T01:19:52.067Z,19.40
2022-08-24T01:22:49.532Z,19.37
2022-08-24T01:25:17.047Z,19.38
2022-08-24T01:27:45.369Z,19.35
2022-08-24T01:30:16.191Z,19.35
2022-08-24T01:32:56.446Z,19.34
2022-08-24T01:35:24.141Z,19.32
2022-08-24T01:37:51.894Z,19.33
2022-08-24T01:40:20.347Z,19.32
2022-08-24T01:42:52.887Z,19.32
2022-08-24T01:45:20.510Z,19.31
2022-08-24T01:47:47.542Z,19.31
2022-08-24T01:50:14.650Z,19.31
2022-08-24T01:53:03.891Z,19.30
2022-08-24T01:55:30.701Z,19.29
2022-08-24T01:57:58.328Z,19.27
2022-08-24T02:00:25.617Z,19.27
2022-08-24T02:02:52.669Z,19.27
2022-08-24T02:05:19.661Z,19.26
2022-08-24T02:07:46.518Z,19.25
2022-08-24T02:10:15.126Z,19.23
2022-08-24T02:12:45.473Z,19.23
2022-08-24T02:15:13.101Z,19.22
2022-08-24T02:17:41.006Z,19.22
2022-08-24T02:20:08.818Z,19.22
2022-08-24T02:22:35.767Z,19.23
2022-08-24T02:25:02.654Z,19.22
2022-08-24T02:27:29.569Z,19.21
2022-08-24T02:29:56.406Z,19.20
2022-08-24T02:32:23.333Z,19.19
2022-08-24T02:34:50.182Z,19.18
2022-08-24T02:37:21.629Z,19.18
2022-08-24T02:39:48.577Z,19.17
2022-08-24T02:42:15.836Z,19.17
2022-08-24T02:44:42.698Z,19.16
2022-08-24T02:47:10.525Z,19.16
2022-08-24T02:49:38.100Z,19.17
2022-08-24T02:52:05.230Z,19.14
2022-08-24T02:54:32.152Z,19.13
2022-08-24T02:56:59.020Z,19.14
2022-08-24T02:59:26.095Z,19.13
2022-08-24T03:01:53.519Z,19.13
2022-08-24T03:04:20.698Z,19.13
2022-08-24T03:06:47.867Z,19.11
2022-08-24T03:09:15.030Z,19.13
2022-08-24T03:11:45.285Z,19.11
2022-08-24T03:14:13.290Z,19.10
2022-08-24T03:16:40.245Z,19.13
2022-08-24T03:19:07.105Z,19.11
2022-08-24T03:21:34.002Z,19.09
2022-08-24T03:24:00.929Z,19.09
2022-08-24T03:26:27.843Z,19.08
2022-08-24T03:28:54.680Z,19.08
2022-08-24T03:31:22.004Z,19.07
2022-08-24T03:33:49.668Z,19.07
2022-08-24T03:36:16.643Z,19.05
2022-08-24T03:38:43.971Z,19.05
2022-08-24T03:41:11.528Z,19.05
2022-08-24T03:43:51.696Z,19.04
2022-08-24T03:46:22.568Z,19.03
2022-08-24T03:48:52.790Z,19.03
2022-08-24T03:51:24.113Z,19.02
2022-08-24T03:53:52.852Z,19.02
2022-08-24T03:56:19.824Z,19.00
2022-08-24T03:58:47.740Z,19.01
2022-08-24T04:01:15.714Z,19.00
2022-08-24T04:03:44.868Z,18.98
2022-08-24T04:06:13.218Z,18.98
2022-08-24T04:08:41.882Z,18.99
2022-08-24T04:11:18.350Z,18.98
2022-08-24T04:13:46.160Z,18.96
2022-08-24T04:16:15.808Z,18.96
2022-08-24T04:18:43.104Z,18.95
2022-08-24T04:21:21.710Z,18.95
2022-08-24T04:23:49.033Z,18.95
2022-08-24T04:26:44.914Z,18.92
2022-08-24T04:29:09.730Z,18.93
2022-08-24T04:31:38.345Z,18.92
2022-08-24T04:34:06.714Z,18.93
2022-08-24T04:36:34.117Z,18.93
2022-08-24T04:39:01.904Z,18.94
2022-08-24T04:41:31.254Z,18.95
2022-08-24T04:43:59.679Z,18.97
2022-08-24T04:46:27.335Z,18.96
2022-08-24T04:48:54.911Z,18.97
2022-08-24T04:51:22.388Z,18.96
2022-08-24T04:53:50.832Z,18.95
2022-08-24T04:56:24.185Z,18.94
2022-08-24T04:58:53.254Z,18.93
2022-08-24T05:01:24.173Z,18.93
2022-08-24T05:03:54.405Z,18.94
2022-08-24T05:06:32.818Z,18.95
2022-08-24T05:09:00.878Z,18.98
2022-08-24T05:11:28.753Z,19.00
2022-08-24T05:13:57.232Z,19.00
2022-08-24T05:16:25.459Z,19.02
2022-08-24T05:18:52.592Z,19.07
2022-08-24T05:21:22.070Z,19.08
2022-08-24T05:23:49.335Z,19.12
2022-08-24T05:26:23.160Z,19.13
2022-08-24T05:28:50.758Z,19.15
2022-08-24T05:31:24.263Z,19.16
2022-08-24T05:33:51.761Z,19.19
2022-08-24T05:36:25.271Z,19.19
2022-08-24T05:38:55.328Z,19.22
2022-08-24T05:41:23.339Z,19.22
2022-08-24T05:43:51.462Z,19.23
2022-08-24T05:46:19.579Z,19.23
2022-08-24T05:48:52.540Z,19.24
2022-08-24T05:51:20.690Z,19.28
2022-08-24T05:53:48.065Z,19.29
2022-08-24T05:56:17.691Z,19.29
2022-08-24T05:58:44.897Z,19.31
2022-08-24T06:01:24.549Z,19.31
2022-08-24T06:03:53.755Z,19.32
2022-08-24T06:06:22.338Z,19.29
2022-08-24T06:08:52.710Z,19.26
2022-08-24T06:11:29.746Z,19.26
2022-08-24T06:14:07.187Z,19.27
2022-08-24T06:16:45.599Z,19.27
2022-08-24T06:19:19.491Z,19.28
2022-08-24T06:21:49.998Z,19.28
2022-08-24T06:24:17.590Z,19.29
2022-08-24T06:27:04.577Z,19.29
2022-08-24T06:29:34.911Z,19.28
2022-08-24T06:32:01.856Z,19.30
2022-08-24T06:34:29.091Z,19.32
2022-08-24T06:36:56.118Z,19.32
2022-08-24T06:39:24.882Z,19.30
2022-08-24T06:41:52.787Z,19.26
2022-08-24T06:44:19.910Z,19.25
2022-08-24T06:46:48.833Z,19.22
2022-08-24T06:49:16.215Z,19.21
2022-08-24T06:51:45.476Z,19.20
2022-08-24T06:54:17.385Z,19.19
2022-08-24T06:56:44.596Z,19.17
2022-08-24T06:59:11.684Z,19.16
2022-08-24T07:01:38.741Z,19.16
2022-08-24T07:04:05.810Z,19.15
2022-08-24T07:06:33.041Z,19.14
2022-08-24T07:09:00.728Z,19.11
2022-08-24T07:11:28.629Z,19.12
2022-08-24T07:13:55.724Z,19.11
2022-08-24T07:16:23.121Z,19.08
2022-08-24T07:18:51.097Z,19.08
2022-08-24T07:21:21.473Z,19.06
2022-08-24T07:23:50.598Z,19.05
2022-08-24T07:26:26.162Z,19.05
2022-08-24T07:29:06.521Z,19.04
2022-08-24T07:31:39.188Z,19.04
2022-08-24T07:34:08.780Z,19.03
2022-08-24T07:36:43.847Z,19.02
2022-08-24T07:39:12.070Z,19.01
2022-08-24T07:44:32.961Z,19.00
2022-08-24T07:47:10.542Z,19.01
2022-08-24T07:49:49.249Z,19.00
2022-08-24T07:52:17.127Z,19.00
2022-08-24T07:54:44.301Z,18.99
2022-08-24T07:57:11.716Z,18.99
2022-08-24T07:59:39.694Z,18.97
2022-08-24T08:02:06.914Z,18.97
2022-08-24T08:04:34.664Z,18.97
2022-08-24T08:07:03.426Z,18.96
2022-08-24T08:09:33.621Z,18.95
2022-08-24T08:12:01.738Z,18.94
2022-08-24T08:14:30.822Z,18.93
2022-08-24T08:16:59.524Z,18.94
2022-08-24T08:19:27.458Z,18.93
2022-08-24T08:22:14.089Z,18.92
2022-08-24T08:24:45.445Z,18.91
2022-08-24T08:27:15.546Z,18.93
2022-08-24T08:29:45.380Z,18.95
2022-08-24T08:32:17.783Z,18.96
2022-08-24T08:34:45.579Z,18.97
2022-08-24T08:37:14.491Z,18.99
2022-08-24T08:39:42.079Z,19.01
2022-08-24T08:42:21.744Z,19.00
2022-08-24T08:45:18.785Z,19.02
2022-08-24T08:48:08.761Z,19.04
2022-08-24T08:50:47.354Z,19.05
2022-08-24T08:53:25.700Z,19.06
2022-08-24T08:56:11.850Z,19.07
2022-08-24T08:58:57.100Z,19.09
2022-08-24T09:01:47.125Z,19.09
2022-08-24T09:04:25.577Z,19.12
2022-08-24T09:06:52.838Z,19.14
2022-08-24T09:09:25.793Z,19.13
2022-08-24T09:12:09.441Z,19.14
2022-08-24T09:14:58.432Z,19.14
2022-08-24T09:17:44.064Z,19.14
2022-08-24T09:20:26.201Z,19.15
2022-08-24T09:23:32.403Z,19.16
2022-08-24T09:26:10.816Z,19.19
2022-08-24T09:28:53.789Z,19.21
2022-08-24T09:31:44.506Z,19.22
2022-08-24T09:34:28.377Z,19.24
2022-08-24T09:37:01.750Z,19.24
2022-08-24T09:39:44.893Z,19.25
2022-08-24T09:42:17.925Z,19.27
2022-08-24T09:45:11.341Z,19.28
2022-08-24T09:47:41.065Z,19.29
2022-08-24T09:50:35.604Z,19.30
2022-08-24T09:53:07.746Z,19.29
2022-08-24T09:55:53.725Z,19.31
2022-08-24T09:58:35.845Z,19.30
2022-08-24T10:01:28.675Z,19.31
2022-08-24T10:04:17.836Z,19.32
2022-08-24T10:07:14.869Z,19.34
2022-08-24T10:10:00.607Z,19.33
2022-08-24T10:12:55.978Z,19.36
2022-08-24T10:15:39.912Z,19.37
2022-08-24T10:18:27.042Z,19.36
2022-08-24T10:21:01.768Z,19.35
2022-08-24T10:23:39.880Z,19.38
2022-08-24T10:26:34.582Z,19.40
2022-08-24T10:29:32.637Z,19.44
2022-08-24T10:32:16.485Z,19.42
2022-08-24T10:34:48.218Z,19.40
2022-08-24T10:37:27.476Z,19.41
2022-08-24T10:40:14.378Z,19.40
2022-08-24T10:43:26.875Z,19.40
2022-08-24T10:46:22.931Z,19.40
2022-08-24T10:49:03.934Z,19.39
2022-08-24T10:51:48.683Z,19.40
2022-08-24T10:54:21.148Z,19.41
2022-08-24T10:57:21.322Z,19.42
2022-08-24T10:59:50.673Z,19.44
2022-08-24T11:02:40.680Z,19.46
2022-08-24T11:05:30.052Z,19.45
2022-08-24T11:08:06.911Z,19.45
2022-08-24T11:10:41.678Z,19.44
2022-08-24T11:13:19.837Z,19.45
2022-08-24T11:15:52.246Z,19.47
2022-08-24T11:18:22.203Z,19.49
2022-08-24T11:20:54.102Z,19.52
2022-08-24T11:23:31.601Z,19.52
2022-08-24T11:26:13.596Z,19.53
2022-08-24T11:28:48.834Z,19.53
2022-08-24T11:31:42.300Z,19.55
2022-08-24T11:34:17.604Z,19.52
2022-08-24T11:36:46.937Z,19.49
2022-08-24T11:39:31.544Z,19.48
2022-08-24T11:42:19.011Z,19.45
2022-08-24T11:44:55.325Z,19.48
2022-08-24T11:47:38.327Z,19.46
2022-08-24T11:50:27.553Z,19.50
2022-08-24T11:53:18.416Z,19.49
2022-08-24T11:56:10.994Z,19.52
2022-08-24T11:58:50.616Z,19.53
2022-08-24T12:01:28.276Z,19.54
2022-08-24T12:04:14.078Z,19.55
2022-08-24T12:07:09.046Z,19.57
2022-08-24T12:09:56.257Z,19.57
2022-08-24T12:12:36.073Z,19.60
2022-08-24T12:15:09.333Z,19.59
2022-08-24T12:17:53.554Z,19.61
2022-08-24T12:20:33.497Z,19.62
2022-08-24T12:23:07.579Z,19.62
2022-08-24T12:25:54.063Z,19.61
2022-08-24T12:28:26.337Z,19.62
2022-08-24T12:30:54.941Z,19.61
2022-08-24T12:33:29.542Z,19.60
2022-08-24T12:36:02.671Z,19.62
2022-08-24T12:38:36.080Z,19.63
2022-08-24T12:41:19.048Z,19.61
2022-08-24T12:43:49.240Z,19.60
2022-08-24T12:46:21.010Z,19.59
2022-08-24T12:49:28.603Z,19.58
2022-08-24T12:52:13.998Z,19.57
2022-08-24T12:55:00.227Z,19.55
2022-08-24T12:57:51.840Z,19.57
2022-08-24T13:00:35.220Z,19.58
2022-08-24T13:03:07.334Z,19.61
2022-08-24T13:05:48.920Z,19.62
2022-08-24T13:08:34.218Z,19.64
2022-08-24T13:11:15.507Z,19.68
2022-08-24T13:14:25.576Z,19.71
2022-08-24T13:16:58.819Z,19.71
2022-08-24T13:19:29.061Z,19.74
2022-08-24T13:22:20.384Z,19.78
2022-08-24T13:25:24.753Z,19.82
2022-08-24T13:28:07.321Z,19.82
2022-08-24T13:30:51.946Z,19.83
2022-08-24T13:33:21.064Z,19.83
2022-08-24T13:35:47.976Z,19.83
2022-08-24T13:38:31.203Z,19.87
2022-08-24T13:41:27.429Z,19.86
2022-08-24T13:44:15.262Z,19.86
2022-08-24T13:47:05.369Z,19.82
2022-08-24T13:49:52.461Z,19.82
2022-08-24T13:52:45.424Z,19.83
2022-08-24T13:55:23.264Z,19.84
2022-08-24T13:58:27.526Z,19.85
2022-08-24T14:01:03.368Z,19.85
2022-08-24T14:03:53.961Z,19.86
2022-08-24T14:06:32.410Z,19.85
2022-08-24T14:09:30.156Z,19.85
2022-08-24T14:12:13.259Z,19.81
2022-08-24T14:15:02.495Z,19.81
2022-08-24T14:17:53.818Z,19.78
2022-08-24T14:20:28.127Z,19.80
2022-08-24T14:23:10.252Z,19.78
2022-08-24T14:25:37.596Z,19.76
2022-08-24T14:28:36.333Z,19.73
2022-08-24T14:31:18.329Z,19.74
2022-08-24T14:33:58.103Z,19.78
2022-08-24T14:36:46.442Z,19.82
2022-08-24T14:39:33.292Z,19.81
2022-08-24T14:42:18.341Z,19.80
2022-08-24T14:45:14.412Z,19.78
2022-08-24T14:47:59.307Z,19.78
2022-08-24T14:50:49.717Z,19.77
2022-08-24T14:53:22.065Z,19.76
2022-08-24T14:56:19.980Z,19.76
2022-08-24T14:59:10.308Z,19.74
2022-08-24T15:01:46.865Z,19.73
2022-08-24T15:05:01.977Z,19.72
2022-08-24T15:07:30.691Z,19.68
2022-08-24T15:10:00.457Z,19.69
2022-08-24T15:13:03.326Z,19.67
2022-08-24T15:15:40.347Z,19.66
2022-08-24T15:18:33.636Z,19.58
2022-08-24T15:21:09.442Z,19.55
2022-08-24T15:24:01.114Z,19.55
2022-08-24T15:27:06.120Z,19.60
2022-08-24T15:29:36.447Z,19.57
2022-08-24T15:32:09.778Z,19.59
2022-08-24T15:34:48.732Z,19.58
2022-08-24T15:37:25.895Z,19.61
2022-08-24T15:39:53.307Z,19.58
2022-08-24T15:42:21.262Z,19.59
2022-08-24T15:44:50.707Z,19.59
2022-08-24T15:47:32.731Z,19.61
2022-08-24T15:50:25.990Z,19.59
2022-08-24T15:53:03.673Z,19.58
2022-08-24T15:55:48.814Z,19.58
2022-08-24T15:58:40.467Z,19.54
2022-08-24T16:01:29.751Z,19.51
2022-08-24T16:04:08.039Z,19.50
2022-08-24T16:06:35.345Z,19.50
2022-08-24T16:09:05.967Z,19.49
2022-08-24T16:11:59.062Z,19.44
2022-08-24T16:14:29.377Z,19.39
2022-08-24T16:16:57.482Z,19.41
2022-08-24T16:19:35.702Z,19.36
2022-08-24T16:22:10.939Z,19.35
2022-08-24T16:24:41.274Z,19.31
2022-08-24T16:27:12.349Z,19.33
2022-08-24T16:29:39.372Z,19.29
2022-08-24T16:32:33.211Z,19.28
2022-08-24T16:35:11.343Z,19.25
2022-08-24T16:37:39.593Z,19.19
2022-08-24T16:40:08.793Z,19.15
2022-08-24T16:42:37.146Z,19.14
2022-08-24T16:45:10.490Z,19.10
2022-08-24T16:47:37.503Z,19.13
2022-08-24T16:50:06.015Z,19.15
2022-08-24T16:52:33.337Z,19.14
2022-08-24T16:55:01.783Z,19.13
2022-08-24T16:57:32.437Z,19.12
2022-08-24T17:00:00.096Z,19.09
2022-08-24T17:02:28.060Z,19.07
2022-08-24T17:04:55.246Z,19.04
2022-08-24T17:07:28.981Z,19.07
2022-08-24T17:09:57.291Z,19.08
2022-08-24T17:12:24.947Z,19.13
2022-08-24T17:14:52.060Z,19.13
2022-08-24T17:17:21.881Z,19.17
2022-08-24T17:19:53.552Z,19.18
2022-08-24T17:22:22.808Z,19.22
2022-08-24T17:24:52.706Z,19.23
2022-08-24T17:27:30.112Z,19.24
2022-08-24T17:29:58.702Z,19.24
2022-08-24T17:32:29.155Z,19.26
2022-08-24T17:34:56.530Z,19.27
2022-08-24T17:37:25.355Z,19.29
2022-08-24T17:39:58.986Z,19.28
2022-08-24T17:42:49.711Z,19.30
2022-08-24T17:45:14.416Z,19.33
2022-08-24T17:47:43.610Z,19.35
2022-08-24T17:50:13.062Z,19.38
2022-08-24T17:52:41.684Z,19.37
2022-08-24T17:55:11.084Z,19.37
2022-08-24T17:57:39.354Z,19.39
2022-08-24T18:00:12.618Z,19.42
2022-08-24T18:02:44.286Z,19.44
2022-08-24T18:05:16.153Z,19.47
2022-08-24T18:07:54.075Z,19.47
2022-08-24T18:10:28.647Z,19.48
2022-08-24T18:12:58.877Z,19.46
2022-08-24T18:15:35.505Z,19.50
2022-08-24T18:18:08.797Z,19.53
2022-08-24T18:20:40.078Z,19.56
2022-08-24T18:23:11.898Z,19.57
2022-08-24T18:25:47.455Z,19.57
2022-08-24T18:28:15.834Z,19.59
2022-08-24T18:30:45.687Z,19.59
2022-08-24T18:33:13.431Z,19.60
2022-08-24T18:35:40.827Z,19.61
2022-08-24T18:38:08.479Z,19.62
2022-08-24T18:40:36.384Z,19.61
2022-08-24T18:43:04.816Z,19.63
2022-08-24T18:45:33.486Z,19.64
2022-08-24T18:48:01.493Z,19.65
2022-08-24T18:50:29.562Z,19.65
2022-08-24T18:52:58.946Z,19.66
2022-08-24T18:55:27.161Z,19.69
2022-08-24T18:57:56.201Z,19.68
2022-08-24T19:00:23.493Z,19.68
2022-08-24T19:03:00.212Z,19.66
2022-08-24T19:05:27.951Z,19.67
2022-08-24T19:07:55.417Z,19.68
2022-08-24T19:10:27.920Z,19.69
2022-08-24T19:13:01.039Z,19.71
2022-08-24T19:15:39.634Z,19.71
2022-08-24T19:18:13.730Z,19.70
2022-08-24T19:20:48.275Z,19.71
2022-08-24T19:23:29.278Z,19.69
2022-08-24T19:25:58.578Z,19.69
2022-08-24T19:28:27.595Z,19.69
2022-08-24T19:30:58.073Z,19.69
2022-08-24T19:33:30.542Z,19.68
2022-08-24T19:36:00.032Z,19.71
2022-08-24T19:38:27.332Z,19.74
2022-08-24T19:40:57.798Z,19.73
2022-08-24T19:43:34.187Z,19.71
2022-08-24T19:46:08.466Z,19.70
2022-08-24T19:48:39.408Z,19.71
2022-08-24T19:51:08.924Z,19.74
2022-08-24T19:53:39.300Z,19.77
2022-08-24T19:56:13.788Z,19.78
2022-08-24T19:58:48.061Z,19.80
2022-08-24T20:01:47.078Z,19.80
2022-08-24T20:04:16.808Z,19.82
2022-08-24T20:06:45.043Z,19.83
2022-08-24T20:09:13.217Z,19.84
2022-08-24T20:11:40.927Z,19.85
2022-08-24T20:14:09.745Z,19.86
2022-08-24T20:16:42.591Z,19.87
2022-08-24T20:19:12.673Z,19.85
2022-08-24T20:21:41.483Z,19.83
2022-08-24T20:24:09.828Z,19.86
2022-08-24T20:26:43.414Z,19.82
2022-08-24T20:29:12.416Z,19.79
2022-08-24T20:31:42.853Z,19.80
2022-08-24T20:34:14.063Z,19.82
2022-08-24T20:36:43.941Z,19.80
2022-08-24T20:39:14.030Z,19.79
2022-08-24T20:41:41.391Z,19.78
2022-08-24T20:44:10.286Z,19.77
2022-08-24T20:46:40.556Z,19.78
2022-08-24T20:49:10.620Z,19.77
2022-08-24T20:51:43.361Z,19.78
2022-08-24T20:54:17.924Z,19.77
2022-08-24T20:56:46.632Z,19.80
2022-08-24T20:59:15.756Z,19.81
2022-08-24T21:01:43.430Z,19.82
2022-08-24T21:04:11.661Z,19.80
2022-08-24T21:06:42.182Z,19.80
2022-08-24T21:09:14.016Z,19.81
2022-08-24T21:11:44.533Z,19.80
2022-08-24T21:14:13.555Z,19.80
2022-08-24T21:16:44.935Z,19.79
2022-08-24T21:19:17.985Z,19.79
2022-08-24T21:21:48.326Z,19.77
2022-08-24T21:24:16.997Z,19.76
2022-08-24T21:26:46.104Z,19.78
2022-08-24T21:29:13.200Z,19.76
2022-08-24T21:31:42.764Z,19.74
2022-08-24T21:34:30.242Z,19.71
2022-08-24T21:36:58.381Z,19.73
2022-08-24T21:39:29.672Z,19.73
2022-08-24T21:41:56.722Z,19.72
2022-08-24T21:44:24.708Z,19.67
2022-08-24T21:46:52.248Z,19.64
2022-08-24T21:49:20.598Z,19.62
2022-08-24T21:51:47.829Z,19.60
2022-08-24T21:54:14.970Z,19.58
2022-08-24T21:56:42.189Z,19.58
2022-08-24T21:59:09.273Z,19.55
2022-08-24T22:01:36.508Z,19.53
2022-08-24T22:04:07.081Z,19.52
2022-08-24T22:06:34.182Z,19.50
2022-08-24T22:09:02.099Z,19.48
2022-08-24T22:11:30.503Z,19.46
2022-08-24T22:13:58.157Z,19.45
2022-08-24T22:16:26.007Z,19.45
2022-08-24T22:18:53.236Z,19.42
2022-08-24T22:21:24.428Z,19.41
2022-08-24T22:23:52.135Z,19.40
2022-08-24T22:26:23.083Z,19.39
2022-08-24T22:28:50.965Z,19.38
2022-08-24T22:31:25.553Z,19.36
2022-08-24T22:33:54.457Z,19.34
2022-08-24T22:36:24.542Z,19.33
2022-08-24T22:38:52.277Z,19.32
2022-08-24T22:41:22.266Z,19.30
2022-08-24T22:44:11.165Z,19.27
2022-08-24T22:46:39.720Z,19.27
2022-08-24T22:49:08.473Z,19.26
2022-08-24T22:51:36.870Z,19.26
2022-08-24T22:54:04.452Z,19.24
2022-08-24T22:56:35.391Z,19.24
2022-08-24T22:59:03.229Z,19.22
2022-08-24T23:01:36.982Z,19.21
2022-08-24T23:04:07.410Z,19.21
2022-08-24T23:06:37.796Z,19.19
2022-08-24T23:09:07.622Z,19.18
2022-08-24T23:11:35.341Z,19.18
2022-08-24T23:14:04.023Z,19.18
2022-08-24T23:16:33.347Z,19.16
2022-08-24T23:19:18.839Z,19.13
2022-08-24T23:21:46.548Z,19.11
2022-08-24T23:24:14.304Z,19.13
2022-08-24T23:26:42.620Z,19.09
2022-08-24T23:29:11.648Z,19.10
2022-08-24T23:31:42.619Z,19.09
2022-08-24T23:34:10.683Z,19.08
2022-08-24T23:36:38.659Z,19.08
2022-08-24T23:39:07.901Z,19.07
2022-08-24T23:41:38.504Z,19.05
2022-08-24T23:44:12.055Z,19.05
2022-08-24T23:46:39.987Z,19.05
2022-08-24T23:49:07.596Z,19.03
2022-08-24T23:51:36.675Z,19.03
2022-08-24T23:54:06.179Z,19.02
2022-08-24T23:56:36.048Z,19.02
2022-08-24T23:59:09.631Z,19.01
